UTDDUTDL

Guest
Details From UTDD - Dushanbe
To UTDL - Khudzhand
Flight Number -
Tags Generated
Created
Modified
Stats Distance 108 nm / 200 km
Max Altitude 0 ft / 0 m
Waypoints 2
Social Downloads 1
Likes 0
Share VATSIM

Download

Looking for another format? Having issues loading an existing format? Contact us
Advertisement - Login to hide

Notes

Generated

Route

UTDD UTDL

ID Type Via Altitude Latitude Longitude Leg Dist Tot Dist Heading (true) Name
O UTDD APT - 0 ft / 0 m 38.54350˚ 68.80684˚ - 0 nm - -
O UTDL APT - 0 ft / 0 m 40.21345˚ 69.67617˚ 108 nm 108 nm 22° / 22° -

Altitude Profile

Advertisement - Login to hide

UTDD

Details ICAO UTDD (DYU)
Name DUSHANBE
Region Tajikistan, Turkmenistan and Uzbekistan
Timezone Asia/Dushanbe (UTC+5.0)
Stats Elevation 2,575 ft / 785 m (AMSL)
Location 38.543486° 68.824637°
Runways 1
Magnetic Variation 4.444° E

METAR

UTDD 112100Z 18001MPS 5000 BR FU OVC027 01/M01 Q1021 R09/D NOSIG RMK QFE697/0930

Decode

TAF

TAF TAF UTDD 111800Z 1119/1207 VRB02MPS 2100 BR FU SCT030 SCT130 TEMPO 1119/1122 1000 BR FU TEMPO 1122/1207 0600 FZFG FU VV003

Decode

Departure Runways

ID Width Length Bearing (true) Bearing (mag) Surface Threshold Offset Overrun Length
09 147 ft / 45 m 10,157 ft / 3,096 m 90.06° 85.62° Asphalt 0 ft / 0 m 0 ft / 0 m
27 147 ft / 45 m 10,157 ft / 3,096 m 270.08° 265.64° Asphalt 1,335 ft / 407 m 0 ft / 0 m

UTDL

Details ICAO UTDL (LBD)
Name KHUDZHAND
Region Tajikistan, Turkmenistan and Uzbekistan
Timezone Asia/Dushanbe (UTC+5.0)
Stats Elevation 1,450 ft / 442 m (AMSL)
Location 40.215396° 69.694708°
Runways 1
Magnetic Variation 4.964° E

METAR

UTDL 112100Z 25006MPS 5000 BR NSC M03/M05 Q1023 R26/CLRD// NOSIG RMK QFE729/0972

Decode

TAF

Not found

Destination Runways

ID Width Length Bearing (true) Bearing (mag) Surface Threshold Offset Overrun Length
08 164 ft / 50 m 10,427 ft / 3,178 m 82.16° 77.20° Asphalt 975 ft / 297 m 210 ft / 64 m
26 164 ft / 50 m 10,427 ft / 3,178 m 262.18° 257.22° Asphalt 975 ft / 297 m 250 ft / 76 m

Popular Alternatives